Time,TemperatureF,DewpointF,PressureIn,WindDirection,WindDirectionDegrees,WindSpeedMPH,WindSpeedGustMPH,Humidity,HourlyPrecipIn,Conditions,Clouds,dailyrainin,SoftwareType,DateUTC
2013-07-11 00:05:00,59.6,52.4,29.90,SSW,195,1.0,4.0,77,0.00,,,0.00,Wunderground v.1.15,2013-07-11 07:05:00,
2013-07-11 00:10:00,59.4,52.5,29.90,SSW,209,2.0,2.0,78,0.00,,,0.00,Wunderground v.1.15,2013-07-11 07:10:00,
2013-07-11 00:25:00,58.3,51.5,29.90,West,275,0.0,0.0,78,0.00,,,0.00,Wunderground v.1.15,2013-07-11 07:25:00,
2013-07-11 00:30:00,57.5,51.4,29.90,ENE,69,0.0,0.0,80,0.00,,,0.00,Wunderground v.1.15,2013-07-11 07:30:00,
2013-07-11 00:40:00,56.4,51.0,29.90,ENE,57,1.0,1.0,82,0.00,,,0.00,Wunderground v.1.15,2013-07-11 07:40:00,
2013-07-11 00:45:00,56.1,51.0,29.90,ENE,57,1.0,1.0,83,0.00,,,0.00,Wunderground v.1.15,2013-07-11 07:45:00,
2013-07-11 00:50:00,55.9,51.1,29.89,ENE,57,0.0,0.0,84,0.00,,,0.00,Wunderground v.1.15,2013-07-11 07:50:00,
2013-07-11 01:05:00,55.4,51.0,29.89,ENE,58,0.0,0.0,85,0.00,,,0.00,Wunderground v.1.15,2013-07-11 08:05:00,
2013-07-11 01:15:00,55.3,51.2,29.89,ENE,58,0.0,0.0,86,0.00,,,0.00,Wunderground v.1.15,2013-07-11 08:15:00,
2013-07-11 01:24:00,55.3,51.5,29.89,NNE,15,0.0,0.0,87,0.00,,,0.00,Wunderground v.1.15,2013-07-11 08:24:00,
2013-07-11 01:30:00,55.3,51.5,29.89,NNE,17,0.0,0.0,87,0.00,,,0.00,Wunderground v.1.15,2013-07-11 08:30:00,
2013-07-11 01:35:00,55.3,51.5,29.89,NNE,17,0.0,0.0,87,0.00,,,0.00,Wunderground v.1.15,2013-07-11 08:35:00,
2013-07-11 01:45:00,55.2,51.4,29.89,NNE,17,0.0,0.0,87,0.00,,,0.00,Wunderground v.1.15,2013-07-11 08:45:00,
2013-07-11 01:55:00,55.1,51.6,29.89,NNE,17,0.0,0.0,88,0.00,,,0.00,Wunderground v.1.15,2013-07-11 08:55:00,
2013-07-11 02:05:00,55.6,52.1,29.89,SW,223,0.0,0.0,88,0.00,,,0.00,Wunderground v.1.15,2013-07-11 09:05:00,
2013-07-11 02:15:00,56.2,52.7,29.89,SSW,206,2.0,4.0,88,0.00,,,0.00,Wunderground v.1.15,2013-07-11 09:15:00,
2013-07-11 02:20:00,56.2,52.7,29.89,SSW,199,3.0,3.0,88,0.00,,,0.00,Wunderground v.1.15,2013-07-11 09:20:00,
2013-07-11 02:30:00,56.3,52.8,29.89,SW,219,2.0,2.0,88,0.00,,,0.00,Wunderground v.1.15,2013-07-11 09:30:00,
2013-07-11 02:40:00,56.2,52.4,29.89,NW,319,0.0,0.0,87,0.00,,,0.00,Wunderground v.1.15,2013-07-11 09:40:00,
2013-07-11 02:50:00,56.1,52.6,29.89,SSW,196,1.0,1.0,88,0.00,,,0.00,Wunderground v.1.15,2013-07-11 09:50:00,
2013-07-11 03:00:00,55.9,52.7,29.89,SW,217,2.0,2.0,89,0.00,,,0.00,Wunderground v.1.15,2013-07-11 10:00:00,
2013-07-11 03:14:00,55.9,53.0,29.89,SSW,197,3.0,4.0,90,0.00,,,0.00,Wunderground v.1.15,2013-07-11 10:14:00,
2013-07-11 03:20:00,55.9,53.0,29.89,SW,217,3.0,6.0,90,0.00,,,0.00,Wunderground v.1.15,2013-07-11 10:20:00,
2013-07-11 03:30:00,55.8,52.9,29.89,SW,218,3.0,3.0,90,0.00,,,0.00,Wunderground v.1.15,2013-07-11 10:30:00,
2013-07-11 03:45:00,55.4,52.5,29.89,SSW,202,6.0,8.0,90,0.00,,,0.00,Wunderground v.1.15,2013-07-11 10:45:00,
2013-07-11 03:50:00,55.3,52.7,29.89,SSW,206,5.0,5.0,91,0.00,,,0.00,Wunderground v.1.15,2013-07-11 10:50:00,
2013-07-11 04:00:00,55.2,52.6,29.89,SSW,207,2.0,5.0,91,0.00,,,0.00,Wunderground v.1.15,2013-07-11 11:00:00,
2013-07-11 04:05:00,55.3,52.7,29.89,SW,224,2.0,5.0,91,0.00,,,0.00,Wunderground v.1.15,2013-07-11 11:05:00,
2013-07-11 04:15:00,55.1,52.5,29.89,SSW,213,2.0,2.0,91,0.00,,,0.00,Wunderground v.1.15,2013-07-11 11:15:00,
2013-07-11 04:20:00,55.2,52.6,29.89,West,271,1.0,1.0,91,0.00,,,0.00,Wunderground v.1.15,2013-07-11 11:20:00,
2013-07-11 04:35:00,54.9,52.6,29.89,SSW,206,3.0,3.0,92,0.00,,,0.00,Wunderground v.1.15,2013-07-11 11:35:00,
2013-07-11 04:40:00,54.9,52.6,29.89,SW,219,2.0,3.0,92,0.00,,,0.00,Wunderground v.1.15,2013-07-11 11:40:00,
2013-07-11 04:50:00,54.8,52.5,29.89,WSW,238,1.0,1.0,92,0.00,,,0.00,Wunderground v.1.15,2013-07-11 11:50:00,
2013-07-11 05:05:00,54.8,52.5,29.89,SSW,212,2.0,2.0,92,0.00,,,0.00,Wunderground v.1.15,2013-07-11 12:05:00,
2013-07-11 05:10:00,54.8,52.5,29.89,SSW,198,2.0,2.0,92,0.00,,,0.00,Wunderground v.1.15,2013-07-11 12:10:00,
2013-07-11 05:20:00,54.8,52.5,29.89,SW,221,1.0,1.0,92,0.00,,,0.00,Wunderground v.1.15,2013-07-11 12:20:00,
2013-07-11 05:30:00,55.0,52.4,29.89,WNW,286,0.0,1.0,91,0.00,,,0.00,Wunderground v.1.15,2013-07-11 12:30:00,
2013-07-11 05:35:00,55.2,52.6,29.90,WNW,296,0.0,1.0,91,0.00,,,0.00,Wunderground v.1.15,2013-07-11 12:35:00,
2013-07-11 05:45:00,55.1,52.5,29.90,SW,219,1.0,1.0,91,0.00,,,0.00,Wunderground v.1.15,2013-07-11 12:45:00,
2013-07-11 05:54:00,54.9,52.3,29.90,SSW,201,3.0,7.0,91,0.00,,,0.00,Wunderground v.1.15,2013-07-11 12:54:00,
2013-07-11 06:05:00,55.1,52.5,29.90,WSW,248,2.0,3.0,91,0.00,,,0.00,Wunderground v.1.15,2013-07-11 13:05:00,
2013-07-11 06:15:00,55.3,52.4,29.90,NW,310,1.0,1.0,90,0.00,,,0.00,Wunderground v.1.15,2013-07-11 13:15:00,
2013-07-11 06:30:00,55.7,52.5,29.90,NW,313,1.0,1.0,89,0.00,,,0.00,Wunderground v.1.15,2013-07-11 13:30:00,
2013-07-11 06:40:00,55.7,52.5,29.90,SSW,210,0.0,0.0,89,0.00,,,0.00,Wunderground v.1.15,2013-07-11 13:40:00,
2013-07-11 06:45:00,55.8,52.6,29.90,SSW,203,1.0,1.0,89,0.00,,,0.00,Wunderground v.1.15,2013-07-11 13:45:00,
2013-07-11 06:54:00,55.8,52.3,29.90,NNW,343,1.0,2.0,88,0.00,,,0.00,Wunderground v.1.15,2013-07-11 13:54:00,
2013-07-11 07:00:00,55.8,52.3,29.90,NW,323,1.0,1.0,88,0.00,,,0.00,Wunderground v.1.15,2013-07-11 14:00:00,
2013-07-11 07:10:00,56.0,52.5,29.90,SW,220,1.0,1.0,88,0.00,,,0.00,Wunderground v.1.15,2013-07-11 14:10:00,
2013-07-11 07:25:00,56.2,52.7,29.90,SW,229,3.0,5.0,88,0.00,,,0.00,Wunderground v.1.15,2013-07-11 14:25:00,
2013-07-11 07:30:00,56.2,52.7,29.90,SSW,198,5.0,5.0,88,0.00,,,0.00,Wunderground v.1.15,2013-07-11 14:30:00,
2013-07-11 07:40:00,56.4,52.9,29.90,SSW,202,4.0,4.0,88,0.00,,,0.00,Wunderground v.1.15,2013-07-11 14:40:00,
2013-07-11 07:50:00,56.7,53.2,29.90,West,261,4.0,4.0,88,0.00,,,0.00,Wunderground v.1.15,2013-07-11 14:50:00,
2013-07-11 07:55:00,56.9,53.1,29.90,SSW,207,2.0,4.0,87,0.00,,,0.00,Wunderground v.1.15,2013-07-11 14:55:00,
2013-07-11 08:05:00,57.2,53.4,29.91,SW,219,6.0,6.0,87,0.00,,,0.00,Wunderground v.1.15,2013-07-11 15:05:00,
2013-07-11 08:10:00,57.7,53.5,29.90,SW,227,6.0,6.0,86,0.00,,,0.00,Wunderground v.1.15,2013-07-11 15:10:00,
2013-07-11 08:15:00,58.5,53.7,29.90,SW,215,5.0,6.0,84,0.00,,,0.00,Wunderground v.1.15,2013-07-11 15:15:00,
2013-07-11 08:25:00,59.1,53.6,29.91,SSW,210,5.0,8.0,82,0.00,,,0.00,Wunderground v.1.15,2013-07-11 15:25:00,
2013-07-11 08:34:00,59.9,53.7,29.91,SW,234,4.0,5.0,80,0.00,,,0.00,Wunderground v.1.15,2013-07-11 15:34:00,
2013-07-11 08:40:00,60.2,53.7,29.91,SSW,211,4.0,9.0,79,0.00,,,0.00,Wunderground v.1.15,2013-07-11 15:40:00,
2013-07-11 08:50:00,59.4,53.2,29.91,SSW,211,8.0,12.0,80,0.00,,,0.00,Wunderground v.1.15,2013-07-11 15:50:00,
2013-07-11 09:00:00,60.5,53.6,29.91,SSW,209,6.0,7.0,78,0.00,,,0.00,Wunderground v.1.15,2013-07-11 16:00:00,
2013-07-11 09:10:00,60.6,53.0,29.91,SW,221,6.0,6.0,76,0.00,,,0.00,Wunderground v.1.15,2013-07-11 16:10:00,
2013-07-11 09:20:00,60.8,53.2,29.91,SW,222,6.0,6.0,76,0.00,,,0.00,Wunderground v.1.15,2013-07-11 16:20:00,
2013-07-11 09:25:00,61.2,53.2,29.91,SSW,204,5.0,6.0,75,0.00,,,0.00,Wunderground v.1.15,2013-07-11 16:25:00,
2013-07-11 09:30:00,61.8,53.4,29.91,SW,229,4.0,4.0,74,0.00,,,0.00,Wunderground v.1.15,2013-07-11 16:30:00,
2013-07-11 09:35:00,62.0,53.6,29.90,South,191,3.0,4.0,74,0.00,,,0.00,Wunderground v.1.15,2013-07-11 16:35:00,
2013-07-11 09:45:00,62.9,53.4,29.91,SSW,194,4.0,4.0,71,0.00,,,0.00,Wunderground v.1.15,2013-07-11 16:45:00,
2013-07-11 09:55:00,63.4,53.4,29.90,SSW,209,3.0,4.0,70,0.00,,,0.00,Wunderground v.1.15,2013-07-11 16:55:00,
2013-07-11 10:00:00,63.6,52.8,29.90,SSW,195,4.0,5.0,68,0.00,,,0.00,Wunderground v.1.15,2013-07-11 17:00:00,
2013-07-11 10:09:00,64.5,53.3,29.90,WSW,238,3.0,4.0,67,0.00,,,0.00,Wunderground v.1.15,2013-07-11 17:09:00,
2013-07-11 10:15:00,65.3,53.2,29.90,SSW,201,4.0,5.0,65,0.00,,,0.00,Wunderground v.1.15,2013-07-11 17:15:00,
2013-07-11 10:20:00,65.8,53.3,29.90,SW,216,3.0,4.0,64,0.00,,,0.00,Wunderground v.1.15,2013-07-11 17:20:00,
2013-07-11 10:25:00,66.7,53.7,29.90,SW,232,2.0,4.0,63,0.00,,,0.00,Wunderground v.1.15,2013-07-11 17:25:00,
2013-07-11 10:35:00,67.4,52.1,29.90,SSW,201,2.0,6.0,58,0.00,,,0.00,Wunderground v.1.15,2013-07-11 17:35:00,
2013-07-11 10:40:00,67.4,53.0,29.90,SSW,192,3.0,5.0,60,0.00,,,0.00,Wunderground v.1.15,2013-07-11 17:40:00,
2013-07-11 10:50:00,67.1,52.7,29.90,South,189,6.0,6.0,60,0.00,,,0.00,Wunderground v.1.15,2013-07-11 17:50:00,
2013-07-11 10:55:00,67.7,53.3,29.90,SSW,208,5.0,10.0,60,0.00,,,0.00,Wunderground v.1.15,2013-07-11 17:55:00,
2013-07-11 11:00:00,68.6,54.2,29.90,SW,219,3.0,3.0,60,0.00,,,0.00,Wunderground v.1.15,2013-07-11 18:00:00,
2013-07-11 11:20:00,69.3,52.4,29.89,SSW,194,5.0,5.0,55,0.00,,,0.00,Wunderground v.1.15,2013-07-11 18:20:00,
2013-07-11 11:30:00,71.5,53.5,29.89,SSW,204,3.0,7.0,53,0.00,,,0.00,Wunderground v.1.15,2013-07-11 18:30:00,
2013-07-11 11:40:00,70.6,52.1,29.89,SW,222,5.0,5.0,52,0.00,,,0.00,Wunderground v.1.15,2013-07-11 18:40:00,
2013-07-11 11:50:00,71.3,52.2,29.89,SSW,202,4.0,6.0,51,0.00,,,0.00,Wunderground v.1.15,2013-07-11 18:50:00,
2013-07-11 11:55:00,71.6,53.0,29.89,WSW,252,5.0,6.0,52,0.00,,,0.00,Wunderground v.1.15,2013-07-11 18:55:00,
2013-07-11 12:10:00,72.6,52.3,29.89,South,186,5.0,8.0,49,0.00,,,0.00,Wunderground v.1.15,2013-07-11 19:10:00,
2013-07-11 12:15:00,73.3,53.0,29.89,SW,215,5.0,8.0,49,0.00,,,0.00,Wunderground v.1.15,2013-07-11 19:15:00,
2013-07-11 12:20:00,73.9,53.0,29.89,South,175,5.0,5.0,48,0.00,,,0.00,Wunderground v.1.15,2013-07-11 19:20:00,
2013-07-11 12:30:00,76.2,54.5,29.89,NNE,13,1.0,2.0,47,0.00,,,0.00,Wunderground v.1.15,2013-07-11 19:30:00,
2013-07-11 12:35:00,77.4,54.4,29.89,NNE,23,1.0,2.0,45,0.00,,,0.00,Wunderground v.1.15,2013-07-11 19:35:00,
2013-07-11 12:45:00,78.0,54.3,29.89,South,180,1.0,1.0,44,0.00,,,0.00,Wunderground v.1.15,2013-07-11 19:45:00,
2013-07-11 12:55:00,78.7,55.0,29.89,West,275,2.0,3.0,44,0.00,,,0.00,Wunderground v.1.15,2013-07-11 19:55:00,
2013-07-11 13:00:00,79.3,55.5,29.88,NNW,341,2.0,2.0,44,0.00,,,0.00,Wunderground v.1.15,2013-07-11 20:00:00,
2013-07-11 13:10:00,78.6,52.9,29.88,SSW,202,4.0,4.0,41,0.00,,,0.00,Wunderground v.1.15,2013-07-11 20:10:00,
2013-07-11 13:15:00,78.0,53.0,29.88,SSW,204,5.0,7.0,42,0.00,,,0.00,Wunderground v.1.15,2013-07-11 20:15:00,
2013-07-11 13:30:00,79.0,53.3,29.88,SSW,208,4.0,4.0,41,0.00,,,0.00,Wunderground v.1.15,2013-07-11 20:30:00,
2013-07-11 13:45:00,79.5,52.4,29.87,SW,225,6.0,10.0,39,0.00,,,0.00,Wunderground v.1.15,2013-07-11 20:45:00,
2013-07-11 13:55:00,81.2,50.9,29.87,SW,219,3.0,5.0,35,0.00,,,0.00,Wunderground v.1.15,2013-07-11 20:55:00,
2013-07-11 14:05:00,81.3,47.8,29.87,SSW,213,6.0,12.0,31,0.00,,,0.00,Wunderground v.1.15,2013-07-11 21:05:00,
2013-07-11 14:20:00,81.4,51.9,29.86,SSW,202,7.0,12.0,36,0.00,,,0.00,Wunderground v.1.15,2013-07-11 21:20:00,
2013-07-11 14:35:00,79.8,53.3,29.86,SSW,207,9.0,16.0,40,0.00,,,0.00,Wunderground v.1.15,2013-07-11 21:35:00,
2013-07-11 14:40:00,79.2,52.8,29.86,SSW,212,11.0,12.0,40,0.00,,,0.00,Wunderground v.1.15,2013-07-11 21:40:00,
2013-07-11 14:50:00,80.5,53.3,29.86,SSW,208,9.0,10.0,39,0.00,,,0.00,Wunderground v.1.15,2013-07-11 21:50:00,
2013-07-11 15:00:00,80.7,53.4,29.85,SSW,213,9.0,11.0,39,0.00,,,0.00,Wunderground v.1.15,2013-07-11 22:00:00,
2013-07-11 15:05:00,80.7,52.0,29.85,SW,216,8.0,11.0,37,0.00,,,0.00,Wunderground v.1.15,2013-07-11 22:05:00,
2013-07-11 15:15:00,79.7,52.5,29.85,SSW,211,9.0,13.0,39,0.00,,,0.00,Wunderground v.1.15,2013-07-11 22:15:00,
2013-07-11 15:25:00,80.0,54.2,29.85,SSW,208,9.0,10.0,41,0.00,,,0.00,Wunderground v.1.15,2013-07-11 22:25:00,
2013-07-11 15:30:00,79.9,53.4,29.85,SSW,207,9.0,10.0,40,0.00,,,0.00,Wunderground v.1.15,2013-07-11 22:30:00,
2013-07-11 15:39:00,79.2,54.1,29.85,SSW,213,10.0,10.0,42,0.00,,,0.00,Wunderground v.1.15,2013-07-11 22:39:00,
2013-07-11 15:50:00,79.9,55.4,29.85,WSW,242,8.0,8.0,43,0.00,,,0.00,Wunderground v.1.15,2013-07-11 22:50:00,
2013-07-11 15:55:00,80.7,55.5,29.85,SSW,202,7.0,8.0,42,0.00,,,0.00,Wunderground v.1.15,2013-07-11 22:55:00,
2013-07-11 16:00:00,80.3,55.1,29.84,SSW,205,6.0,12.0,42,0.00,,,0.00,Wunderground v.1.15,2013-07-11 23:00:00,
2013-07-11 16:10:00,80.0,55.5,29.84,SW,215,8.0,8.0,43,0.00,,,0.00,Wunderground v.1.15,2013-07-11 23:10:00,
2013-07-11 16:20:00,80.9,55.7,29.84,SW,227,6.0,6.0,42,0.00,,,0.00,Wunderground v.1.15,2013-07-11 23:20:00,
2013-07-11 16:30:00,80.6,56.0,29.84,SSW,204,5.0,5.0,43,0.00,,,0.00,Wunderground v.1.15,2013-07-11 23:30:00,
2013-07-11 16:40:00,80.2,55.7,29.84,WSW,244,5.0,5.0,43,0.00,,,0.00,Wunderground v.1.15,2013-07-11 23:40:00,
2013-07-11 16:45:00,80.6,56.0,29.84,SSW,210,5.0,5.0,43,0.00,,,0.00,Wunderground v.1.15,2013-07-11 23:45:00,
2013-07-11 16:50:00,81.1,55.8,29.84,SW,215,4.0,5.0,42,0.00,,,0.00,Wunderground v.1.15,2013-07-11 23:50:00,
2013-07-11 16:55:00,81.7,55.7,29.84,North,5,2.0,5.0,41,0.00,,,0.00,Wunderground v.1.15,2013-07-11 23:55:00,
2013-07-11 17:05:00,82.6,55.1,29.84,NW,319,2.0,7.0,39,0.00,,,0.00,Wunderground v.1.15,2013-07-12 00:05:00,
2013-07-11 17:15:00,81.9,54.5,29.84,SSW,202,2.0,2.0,39,0.00,,,0.00,Wunderground v.1.15,2013-07-12 00:15:00,
2013-07-11 17:20:00,80.9,55.0,29.84,SSW,209,3.0,4.0,41,0.00,,,0.00,Wunderground v.1.15,2013-07-12 00:20:00,
2013-07-11 17:30:00,80.7,54.8,29.84,NW,304,2.0,2.0,41,0.00,,,0.00,Wunderground v.1.15,2013-07-12 00:30:00,
2013-07-11 17:44:00,81.2,53.9,29.84,NNW,333,3.0,3.0,39,0.00,,,0.00,Wunderground v.1.15,2013-07-12 00:44:00,
2013-07-11 17:50:00,80.5,53.3,29.83,North,355,3.0,3.0,39,0.00,,,0.00,Wunderground v.1.15,2013-07-12 00:50:00,
2013-07-11 17:55:00,80.1,53.6,29.83,NW,309,2.0,3.0,40,0.00,,,0.00,Wunderground v.1.15,2013-07-12 00:55:00,
2013-07-11 18:05:00,79.6,53.1,29.83,North,360,2.0,3.0,40,0.00,,,0.00,Wunderground v.1.15,2013-07-12 01:05:00,
2013-07-11 18:25:00,78.3,53.3,29.84,NNW,341,1.0,2.0,42,0.00,,,0.00,Wunderground v.1.15,2013-07-12 01:25:00,
2013-07-11 18:35:00,77.2,52.3,29.84,SSE,150,2.0,2.0,42,0.00,,,0.00,Wunderground v.1.15,2013-07-12 01:35:00,
2013-07-11 18:44:00,76.5,52.3,29.84,NNW,328,1.0,4.0,43,0.00,,,0.00,Wunderground v.1.15,2013-07-12 01:44:00,
2013-07-11 18:50:00,76.0,52.5,29.84,NNW,341,1.0,1.0,44,0.00,,,0.00,Wunderground v.1.15,2013-07-12 01:50:00,
2013-07-11 19:10:00,73.6,52.7,29.84,NW,319,1.0,1.0,48,0.00,,,0.00,Wunderground v.1.15,2013-07-12 02:10:00,
2013-07-11 19:20:00,72.9,52.1,29.84,SSW,213,0.0,5.0,48,0.00,,,0.00,Wunderground v.1.15,2013-07-12 02:20:00,
2013-07-11 19:35:00,71.1,52.6,29.84,SSW,201,3.0,6.0,52,0.00,,,0.00,Wunderground v.1.15,2013-07-12 02:35:00,
2013-07-11 19:45:00,70.5,52.5,29.84,West,261,1.0,3.0,53,0.00,,,0.00,Wunderground v.1.15,2013-07-12 02:45:00,
2013-07-11 19:50:00,70.2,52.8,29.84,West,265,0.0,0.0,54,0.00,,,0.00,Wunderground v.1.15,2013-07-12 02:50:00,
2013-07-11 20:00:00,69.1,52.2,29.85,NW,309,0.0,0.0,55,0.00,,,0.00,Wunderground v.1.15,2013-07-12 03:00:00,
2013-07-11 20:15:00,67.5,52.2,29.85,NW,306,1.0,1.0,58,0.00,,,0.00,Wunderground v.1.15,2013-07-12 03:15:00,
2013-07-11 20:20:00,66.7,51.9,29.85,NW,306,1.0,1.0,59,0.00,,,0.00,Wunderground v.1.15,2013-07-12 03:20:00,
2013-07-11 20:35:00,65.1,51.8,29.85,NW,306,0.0,0.0,62,0.00,,,0.00,Wunderground v.1.15,2013-07-12 03:35:00,
2013-07-11 20:45:00,64.2,51.8,29.85,NNE,15,0.0,0.0,64,0.00,,,0.00,Wunderground v.1.15,2013-07-12 03:45:00,
2013-07-11 20:55:00,63.1,51.6,29.86,NNE,24,1.0,2.0,66,0.00,,,0.00,Wunderground v.1.15,2013-07-12 03:55:00,
2013-07-11 21:00:00,62.7,51.6,29.86,NNE,24,0.0,0.0,67,0.00,,,0.00,Wunderground v.1.15,2013-07-12 04:00:00,
2013-07-11 21:05:00,62.4,51.7,29.86,NNE,24,0.0,0.0,68,0.00,,,0.00,Wunderground v.1.15,2013-07-12 04:05:00,
2013-07-11 21:10:00,62.1,51.8,29.86,NNE,24,0.0,0.0,69,0.00,,,0.00,Wunderground v.1.15,2013-07-12 04:10:00,
2013-07-11 21:15:00,61.8,51.5,29.86,NNE,24,0.0,0.0,69,0.00,,,0.00,Wunderground v.1.15,2013-07-12 04:15:00,
2013-07-11 21:20:00,61.8,51.9,29.86,West,267,0.0,0.0,70,0.00,,,0.00,Wunderground v.1.15,2013-07-12 04:20:00,
2013-07-11 21:25:00,62.0,52.1,29.86,West,267,0.0,0.0,70,0.00,,,0.00,Wunderground v.1.15,2013-07-12 04:25:00,
2013-07-11 21:35:00,61.7,51.8,29.87,West,274,0.0,0.0,70,0.00,,,0.00,Wunderground v.1.15,2013-07-12 04:35:00,
2013-07-11 21:40:00,61.4,51.5,29.87,WNW,300,0.0,0.0,70,0.00,,,0.00,Wunderground v.1.15,2013-07-12 04:40:00,
2013-07-11 21:50:00,60.9,51.4,29.88,North,360,0.0,0.0,71,0.00,,,0.00,Wunderground v.1.15,2013-07-12 04:50:00,
2013-07-11 21:55:00,60.4,51.3,29.88,North,360,0.0,0.0,72,0.00,,,0.00,Wunderground v.1.15,2013-07-12 04:55:00,
2013-07-11 22:00:00,60.1,51.4,29.88,North,360,0.0,0.0,73,0.00,,,0.00,Wunderground v.1.15,2013-07-12 05:00:00,
2013-07-11 22:10:00,59.6,51.3,29.88,North,360,0.0,0.0,74,0.00,,,0.00,Wunderground v.1.15,2013-07-12 05:10:00,
2013-07-11 22:20:00,59.6,51.7,29.88,North,360,0.0,0.0,75,0.00,,,0.00,Wunderground v.1.15,2013-07-12 05:20:00,
2013-07-11 22:29:00,59.4,51.8,29.88,North,360,0.0,0.0,76,0.00,,,0.00,Wunderground v.1.15,2013-07-12 05:29:00,
2013-07-11 22:35:00,59.1,51.5,29.88,North,360,0.0,0.0,76,0.00,,,0.00,Wunderground v.1.15,2013-07-12 05:35:00,
2013-07-11 22:45:00,58.9,52.1,29.88,North,360,0.0,0.0,78,0.00,,,0.00,Wunderground v.1.15,2013-07-12 05:45:00,
2013-07-11 22:55:00,59.0,52.1,29.88,North,360,0.0,0.0,78,0.00,,,0.00,Wunderground v.1.15,2013-07-12 05:55:00,
2013-07-11 23:00:00,59.2,52.3,29.88,SSW,198,0.0,0.0,78,0.00,,,0.00,Wunderground v.1.15,2013-07-12 06:00:00,
2013-07-11 23:10:00,59.7,52.5,29.88,SW,232,1.0,1.0,77,0.00,,,0.00,Wunderground v.1.15,2013-07-12 06:10:00,
2013-07-11 23:15:00,59.9,52.7,29.88,South,169,1.0,1.0,77,0.00,,,0.00,Wunderground v.1.15,2013-07-12 06:15:00,
2013-07-11 23:25:00,59.8,52.6,29.88,SW,217,2.0,2.0,77,0.00,,,0.00,Wunderground v.1.15,2013-07-12 06:25:00,
2013-07-11 23:34:00,59.6,52.4,29.88,SSW,198,2.0,4.0,77,0.00,,,0.00,Wunderground v.1.15,2013-07-12 06:34:00,
2013-07-11 23:40:00,59.6,52.4,29.88,WNW,283,3.0,5.0,77,0.00,,,0.00,Wunderground v.1.15,2013-07-12 06:40:00,
2013-07-11 23:50:00,59.5,52.3,29.89,SSW,207,3.0,7.0,77,0.00,,,0.00,Wunderground v.1.15,2013-07-12 06:50:00,